sensor_id;sensor_type;location;lat;lon;timestamp;temperature;humidity
35377;DHT22;21480;51.642;4.834;2022-12-07T00:01:03;2.70;99.90
35377;DHT22;21480;51.642;4.834;2022-12-07T00:03:29;2.70;99.90
35377;DHT22;21480;51.642;4.834;2022-12-07T00:05:58;2.60;99.90
35377;DHT22;21480;51.642;4.834;2022-12-07T00:08:24;2.50;99.90
35377;DHT22;21480;51.642;4.834;2022-12-07T00:10:49;2.60;99.90
35377;DHT22;21480;51.642;4.834;2022-12-07T00:13:15;2.60;99.90
35377;DHT22;21480;51.642;4.834;2022-12-07T00:15:41;2.70;99.90
35377;DHT22;21480;51.642;4.834;2022-12-07T00:18:07;2.80;99.90
35377;DHT22;21480;51.642;4.834;2022-12-07T00:20:32;2.90;99.90
35377;DHT22;21480;51.642;4.834;2022-12-07T00:22:58;3.00;99.90
35377;DHT22;21480;51.642;4.834;2022-12-07T00:25:24;3.20;99.90
35377;DHT22;21480;51.642;4.834;2022-12-07T00:27:52;3.30;99.90
35377;DHT22;21480;51.642;4.834;2022-12-07T00:30:19;3.40;99.90
35377;DHT22;21480;51.642;4.834;2022-12-07T00:32:44;3.50;99.90
35377;DHT22;21480;51.642;4.834;2022-12-07T00:35:10;3.60;99.90
35377;DHT22;21480;51.642;4.834;2022-12-07T00:37:36;3.60;99.90
35377;DHT22;21480;51.642;4.834;2022-12-07T00:40:01;3.70;99.90
35377;DHT22;21480;51.642;4.834;2022-12-07T00:42:27;3.70;99.90
35377;DHT22;21480;51.642;4.834;2022-12-07T00:44:53;3.70;99.90
35377;DHT22;21480;51.642;4.834;2022-12-07T00:47:18;3.70;99.90
35377;DHT22;21480;51.642;4.834;2022-12-07T00:49:44;3.70;99.90
35377;DHT22;21480;51.642;4.834;2022-12-07T00:52:10;3.60;99.90
35377;DHT22;21480;51.642;4.834;2022-12-07T00:54:35;3.50;99.90
35377;DHT22;21480;51.642;4.834;2022-12-07T00:57:01;3.40;99.90
35377;DHT22;21480;51.642;4.834;2022-12-07T00:59:27;3.30;99.90
35377;DHT22;21480;51.642;4.834;2022-12-07T01:01:53;3.30;99.90
35377;DHT22;21480;51.642;4.834;2022-12-07T01:04:18;3.30;99.90
35377;DHT22;21480;51.642;4.834;2022-12-07T01:06:44;3.20;99.90
35377;DHT22;21480;51.642;4.834;2022-12-07T01:09:09;3.30;99.90
35377;DHT22;21480;51.642;4.834;2022-12-07T01:11:35;3.50;99.90
35377;DHT22;21480;51.642;4.834;2022-12-07T01:14:01;3.60;99.90
35377;DHT22;21480;51.642;4.834;2022-12-07T01:16:29;3.70;99.90
35377;DHT22;21480;51.642;4.834;2022-12-07T01:18:56;3.70;99.90
35377;DHT22;21480;51.642;4.834;2022-12-07T01:21:30;3.70;99.90
35377;DHT22;21480;51.642;4.834;2022-12-07T01:24:00;3.80;99.90
35377;DHT22;21480;51.642;4.834;2022-12-07T01:26:26;3.70;99.90
35377;DHT22;21480;51.642;4.834;2022-12-07T01:28:52;3.60;99.90
35377;DHT22;21480;51.642;4.834;2022-12-07T01:31:25;3.40;99.90
35377;DHT22;21480;51.642;4.834;2022-12-07T01:33:53;3.40;99.90
35377;DHT22;21480;51.642;4.834;2022-12-07T01:36:23;3.30;99.90
35377;DHT22;21480;51.642;4.834;2022-12-07T01:38:52;3.20;99.90
35377;DHT22;21480;51.642;4.834;2022-12-07T01:41:20;3.10;99.90
35377;DHT22;21480;51.642;4.834;2022-12-07T01:46:50;2.70;99.90
35377;DHT22;21480;51.642;4.834;2022-12-07T01:51:49;2.50;99.90
35377;DHT22;21480;51.642;4.834;2022-12-07T01:54:17;2.50;99.90
35377;DHT22;21480;51.642;4.834;2022-12-07T01:56:50;2.50;99.90
35377;DHT22;21480;51.642;4.834;2022-12-07T01:59:21;2.40;99.90
35377;DHT22;21480;51.642;4.834;2022-12-07T02:01:48;2.40;99.90
35377;DHT22;21480;51.642;4.834;2022-12-07T02:04:14;2.40;99.90
35377;DHT22;21480;51.642;4.834;2022-12-07T02:06:41;2.30;99.90
35377;DHT22;21480;51.642;4.834;2022-12-07T02:09:08;2.30;99.90
35377;DHT22;21480;51.642;4.834;2022-12-07T02:11:34;2.30;99.90
35377;DHT22;21480;51.642;4.834;2022-12-07T02:14:00;2.30;99.90
35377;DHT22;21480;51.642;4.834;2022-12-07T02:16:28;2.30;99.90
35377;DHT22;21480;51.642;4.834;2022-12-07T02:24:56;2.60;99.90
35377;DHT22;21480;51.642;4.834;2022-12-07T02:30:19;2.70;99.90
35377;DHT22;21480;51.642;4.834;2022-12-07T02:33:01;2.70;99.90
35377;DHT22;21480;51.642;4.834;2022-12-07T02:41:00;2.30;99.90
35377;DHT22;21480;51.642;4.834;2022-12-07T02:43:34;2.20;99.90
35377;DHT22;21480;51.642;4.834;2022-12-07T02:46:08;2.10;99.90
35377;DHT22;21480;51.642;4.834;2022-12-07T02:48:36;2.10;99.90
35377;DHT22;21480;51.642;4.834;2022-12-07T02:51:04;2.00;99.90
35377;DHT22;21480;51.642;4.834;2022-12-07T02:53:34;1.90;99.90
35377;DHT22;21480;51.642;4.834;2022-12-07T02:56:39;1.80;99.90
35377;DHT22;21480;51.642;4.834;2022-12-07T03:15:25;2.10;99.90
35377;DHT22;21480;51.642;4.834;2022-12-07T03:17:53;2.00;99.90
35377;DHT22;21480;51.642;4.834;2022-12-07T03:20:21;2.00;99.90
35377;DHT22;21480;51.642;4.834;2022-12-07T03:22:48;1.90;99.90
35377;DHT22;21480;51.642;4.834;2022-12-07T03:25:16;1.80;99.90
35377;DHT22;21480;51.642;4.834;2022-12-07T03:27:54;1.70;99.90
35377;DHT22;21480;51.642;4.834;2022-12-07T03:33:06;1.40;99.90
35377;DHT22;21480;51.642;4.834;2022-12-07T03:35:40;1.40;99.90
35377;DHT22;21480;51.642;4.834;2022-12-07T03:41:07;1.40;99.90
35377;DHT22;21480;51.642;4.834;2022-12-07T03:43:36;1.60;99.90
35377;DHT22;21480;51.642;4.834;2022-12-07T03:46:25;1.50;99.90
35377;DHT22;21480;51.642;4.834;2022-12-07T03:52:12;1.50;99.90
35377;DHT22;21480;51.642;4.834;2022-12-07T03:54:52;1.50;99.90
35377;DHT22;21480;51.642;4.834;2022-12-07T03:57:23;1.60;99.90
35377;DHT22;21480;51.642;4.834;2022-12-07T03:59:49;1.60;99.90
35377;DHT22;21480;51.642;4.834;2022-12-07T04:02:16;1.60;99.90
35377;DHT22;21480;51.642;4.834;2022-12-07T04:04:42;1.60;99.90
35377;DHT22;21480;51.642;4.834;2022-12-07T04:07:08;1.60;99.90
35377;DHT22;21480;51.642;4.834;2022-12-07T04:09:34;1.60;99.90
35377;DHT22;21480;51.642;4.834;2022-12-07T04:12:00;1.50;99.90
35377;DHT22;21480;51.642;4.834;2022-12-07T04:14:26;1.40;99.90
35377;DHT22;21480;51.642;4.834;2022-12-07T04:16:56;1.40;99.90
35377;DHT22;21480;51.642;4.834;2022-12-07T04:19:25;1.40;99.90
35377;DHT22;21480;51.642;4.834;2022-12-07T04:21:51;1.50;99.90
35377;DHT22;21480;51.642;4.834;2022-12-07T04:24:20;1.60;99.90
35377;DHT22;21480;51.642;4.834;2022-12-07T04:26:46;1.70;99.90
35377;DHT22;21480;51.642;4.834;2022-12-07T04:29:13;1.70;99.90
35377;DHT22;21480;51.642;4.834;2022-12-07T04:31:39;1.70;99.90
35377;DHT22;21480;51.642;4.834;2022-12-07T04:34:06;1.70;99.90
35377;DHT22;21480;51.642;4.834;2022-12-07T04:36:32;1.70;99.90
35377;DHT22;21480;51.642;4.834;2022-12-07T04:38:58;1.70;99.90
35377;DHT22;21480;51.642;4.834;2022-12-07T04:41:25;1.70;99.90
35377;DHT22;21480;51.642;4.834;2022-12-07T04:43:59;1.70;99.90
35377;DHT22;21480;51.642;4.834;2022-12-07T04:46:25;1.70;99.90
35377;DHT22;21480;51.642;4.834;2022-12-07T04:48:52;1.60;99.90
35377;DHT22;21480;51.642;4.834;2022-12-07T04:51:21;1.60;99.90
35377;DHT22;21480;51.642;4.834;2022-12-07T04:53:47;1.50;99.90
35377;DHT22;21480;51.642;4.834;2022-12-07T04:56:14;1.40;99.90
35377;DHT22;21480;51.642;4.834;2022-12-07T04:58:39;1.30;99.90
35377;DHT22;21480;51.642;4.834;2022-12-07T05:01:05;1.20;99.90
35377;DHT22;21480;51.642;4.834;2022-12-07T05:03:31;1.10;99.90
35377;DHT22;21480;51.642;4.834;2022-12-07T05:05:56;1.00;99.90
35377;DHT22;21480;51.642;4.834;2022-12-07T05:08:22;0.90;99.90
35377;DHT22;21480;51.642;4.834;2022-12-07T05:10:49;0.80;99.90
35377;DHT22;21480;51.642;4.834;2022-12-07T05:13:15;0.70;99.90
35377;DHT22;21480;51.642;4.834;2022-12-07T05:15:41;0.70;99.90
35377;DHT22;21480;51.642;4.834;2022-12-07T05:18:10;0.60;99.90
35377;DHT22;21480;51.642;4.834;2022-12-07T05:20:38;0.50;99.90
35377;DHT22;21480;51.642;4.834;2022-12-07T05:23:04;0.50;99.90
35377;DHT22;21480;51.642;4.834;2022-12-07T05:25:30;0.40;99.90
35377;DHT22;21480;51.642;4.834;2022-12-07T05:27:56;0.40;99.90
35377;DHT22;21480;51.642;4.834;2022-12-07T05:30:24;0.40;99.90
35377;DHT22;21480;51.642;4.834;2022-12-07T05:32:49;0.40;99.90
35377;DHT22;21480;51.642;4.834;2022-12-07T05:35:16;0.40;99.90
35377;DHT22;21480;51.642;4.834;2022-12-07T05:37:41;0.30;99.90
35377;DHT22;21480;51.642;4.834;2022-12-07T05:40:08;0.20;99.90
35377;DHT22;21480;51.642;4.834;2022-12-07T05:42:34;0.20;99.90
35377;DHT22;21480;51.642;4.834;2022-12-07T05:44:59;0.20;99.90
35377;DHT22;21480;51.642;4.834;2022-12-07T05:47:25;0.10;99.90
35377;DHT22;21480;51.642;4.834;2022-12-07T05:49:51;0.10;99.90
35377;DHT22;21480;51.642;4.834;2022-12-07T05:52:17;0.10;99.90
35377;DHT22;21480;51.642;4.834;2022-12-07T05:54:42;0.10;99.90
35377;DHT22;21480;51.642;4.834;2022-12-07T05:57:08;0.00;99.90
35377;DHT22;21480;51.642;4.834;2022-12-07T05:59:34;0.00;99.90
35377;DHT22;21480;51.642;4.834;2022-12-07T06:02:12;-0.10;99.90
35377;DHT22;21480;51.642;4.834;2022-12-07T06:04:40;-0.10;99.90
35377;DHT22;21480;51.642;4.834;2022-12-07T06:07:07;-0.10;99.90
35377;DHT22;21480;51.642;4.834;2022-12-07T06:09:33;0.00;99.90
35377;DHT22;21480;51.642;4.834;2022-12-07T06:12:00;0.00;99.90
35377;DHT22;21480;51.642;4.834;2022-12-07T06:14:45;-0.10;99.90
35377;DHT22;21480;51.642;4.834;2022-12-07T06:17:11;-0.20;99.90
35377;DHT22;21480;51.642;4.834;2022-12-07T06:19:38;-0.20;99.90
35377;DHT22;21480;51.642;4.834;2022-12-07T06:22:04;-0.30;99.90
35377;DHT22;21480;51.642;4.834;2022-12-07T06:24:30;-0.30;99.90
35377;DHT22;21480;51.642;4.834;2022-12-07T06:26:56;-0.20;99.90
35377;DHT22;21480;51.642;4.834;2022-12-07T06:29:22;-0.20;99.90
35377;DHT22;21480;51.642;4.834;2022-12-07T06:31:48;-0.20;99.90
35377;DHT22;21480;51.642;4.834;2022-12-07T06:34:17;-0.10;99.90
35377;DHT22;21480;51.642;4.834;2022-12-07T06:36:43;-0.10;99.90
35377;DHT22;21480;51.642;4.834;2022-12-07T06:39:09;-0.10;99.90
35377;DHT22;21480;51.642;4.834;2022-12-07T06:41:36;0.00;99.90
35377;DHT22;21480;51.642;4.834;2022-12-07T06:44:03;0.00;99.90
35377;DHT22;21480;51.642;4.834;2022-12-07T06:46:32;0.00;99.90
35377;DHT22;21480;51.642;4.834;2022-12-07T06:49:00;-0.10;99.90
35377;DHT22;21480;51.642;4.834;2022-12-07T06:51:26;0.00;99.90
35377;DHT22;21480;51.642;4.834;2022-12-07T06:53:52;0.20;99.90
35377;DHT22;21480;51.642;4.834;2022-12-07T06:56:17;0.10;99.90
35377;DHT22;21480;51.642;4.834;2022-12-07T06:58:43;0.00;99.90
35377;DHT22;21480;51.642;4.834;2022-12-07T07:01:14;0.00;99.90
35377;DHT22;21480;51.642;4.834;2022-12-07T07:03:40;0.00;99.90
35377;DHT22;21480;51.642;4.834;2022-12-07T07:06:07;0.00;99.90
35377;DHT22;21480;51.642;4.834;2022-12-07T07:08:34;0.20;99.90
35377;DHT22;21480;51.642;4.834;2022-12-07T07:11:00;0.20;99.90
35377;DHT22;21480;51.642;4.834;2022-12-07T07:13:26;0.10;99.90
35377;DHT22;21480;51.642;4.834;2022-12-07T07:15:52;0.00;99.90
35377;DHT22;21480;51.642;4.834;2022-12-07T07:18:18;0.00;99.90
35377;DHT22;21480;51.642;4.834;2022-12-07T07:20:44;0.00;99.90
35377;DHT22;21480;51.642;4.834;2022-12-07T07:23:10;0.00;99.90
35377;DHT22;21480;51.642;4.834;2022-12-07T07:25:35;0.10;99.90
35377;DHT22;21480;51.642;4.834;2022-12-07T07:28:01;0.20;99.90
35377;DHT22;21480;51.642;4.834;2022-12-07T07:30:27;0.20;99.90
35377;DHT22;21480;51.642;4.834;2022-12-07T07:32:58;0.20;99.90
35377;DHT22;21480;51.642;4.834;2022-12-07T07:35:27;0.20;99.90
35377;DHT22;21480;51.642;4.834;2022-12-07T07:37:53;0.30;99.90
35377;DHT22;21480;51.642;4.834;2022-12-07T07:40:19;0.30;99.90
35377;DHT22;21480;51.642;4.834;2022-12-07T07:42:47;0.30;99.90
35377;DHT22;21480;51.642;4.834;2022-12-07T07:45:14;0.30;99.90
35377;DHT22;21480;51.642;4.834;2022-12-07T07:47:39;0.30;99.90
35377;DHT22;21480;51.642;4.834;2022-12-07T07:50:06;0.30;99.90
35377;DHT22;21480;51.642;4.834;2022-12-07T07:52:32;0.30;99.90
35377;DHT22;21480;51.642;4.834;2022-12-07T07:54:57;0.20;99.90
35377;DHT22;21480;51.642;4.834;2022-12-07T07:57:23;0.20;99.90
35377;DHT22;21480;51.642;4.834;2022-12-07T07:59:49;0.20;99.90
35377;DHT22;21480;51.642;4.834;2022-12-07T08:02:16;0.30;99.90
35377;DHT22;21480;51.642;4.834;2022-12-07T08:04:43;0.30;99.90
35377;DHT22;21480;51.642;4.834;2022-12-07T08:07:09;0.30;99.90
35377;DHT22;21480;51.642;4.834;2022-12-07T08:09:35;0.40;99.90
35377;DHT22;21480;51.642;4.834;2022-12-07T08:12:01;0.50;99.90
35377;DHT22;21480;51.642;4.834;2022-12-07T08:14:27;0.50;99.90
35377;DHT22;21480;51.642;4.834;2022-12-07T08:16:54;0.60;99.90
35377;DHT22;21480;51.642;4.834;2022-12-07T08:19:20;0.60;99.90
35377;DHT22;21480;51.642;4.834;2022-12-07T08:21:46;0.60;99.90
35377;DHT22;21480;51.642;4.834;2022-12-07T08:24:12;0.60;99.90
35377;DHT22;21480;51.642;4.834;2022-12-07T08:26:38;0.60;99.90
35377;DHT22;21480;51.642;4.834;2022-12-07T08:29:03;0.60;99.90
35377;DHT22;21480;51.642;4.834;2022-12-07T08:31:29;0.70;99.90
35377;DHT22;21480;51.642;4.834;2022-12-07T08:33:55;0.80;99.90
35377;DHT22;21480;51.642;4.834;2022-12-07T08:36:21;0.90;99.90
35377;DHT22;21480;51.642;4.834;2022-12-07T08:38:48;1.00;99.90
35377;DHT22;21480;51.642;4.834;2022-12-07T08:41:15;1.10;99.90
35377;DHT22;21480;51.642;4.834;2022-12-07T08:43:43;1.20;99.90
35377;DHT22;21480;51.642;4.834;2022-12-07T08:46:20;1.30;99.90
35377;DHT22;21480;51.642;4.834;2022-12-07T08:48:51;1.30;99.90
35377;DHT22;21480;51.642;4.834;2022-12-07T08:51:19;1.20;99.90
35377;DHT22;21480;51.642;4.834;2022-12-07T08:53:45;1.10;99.90
35377;DHT22;21480;51.642;4.834;2022-12-07T08:56:11;1.10;99.90
35377;DHT22;21480;51.642;4.834;2022-12-07T08:58:38;1.00;99.90
35377;DHT22;21480;51.642;4.834;2022-12-07T09:01:04;0.90;99.90
35377;DHT22;21480;51.642;4.834;2022-12-07T09:03:30;1.00;99.90
35377;DHT22;21480;51.642;4.834;2022-12-07T09:05:57;1.10;99.90
35377;DHT22;21480;51.642;4.834;2022-12-07T09:08:27;1.50;99.90
35377;DHT22;21480;51.642;4.834;2022-12-07T09:10:54;2.00;99.90
35377;DHT22;21480;51.642;4.834;2022-12-07T09:13:20;2.20;99.90
35377;DHT22;21480;51.642;4.834;2022-12-07T09:15:46;2.20;99.90
35377;DHT22;21480;51.642;4.834;2022-12-07T09:18:11;2.20;99.90
35377;DHT22;21480;51.642;4.834;2022-12-07T09:20:37;2.00;99.90
35377;DHT22;21480;51.642;4.834;2022-12-07T09:23:05;2.00;99.90
35377;DHT22;21480;51.642;4.834;2022-12-07T09:25:32;2.20;99.90
35377;DHT22;21480;51.642;4.834;2022-12-07T09:27:58;2.20;99.90
35377;DHT22;21480;51.642;4.834;2022-12-07T09:30:25;2.40;99.90
35377;DHT22;21480;51.642;4.834;2022-12-07T09:32:53;2.50;99.90
35377;DHT22;21480;51.642;4.834;2022-12-07T09:35:19;2.50;99.90
35377;DHT22;21480;51.642;4.834;2022-12-07T09:37:48;2.50;99.90
35377;DHT22;21480;51.642;4.834;2022-12-07T09:40:15;2.40;99.90
35377;DHT22;21480;51.642;4.834;2022-12-07T09:42:44;2.40;99.90
35377;DHT22;21480;51.642;4.834;2022-12-07T09:45:18;2.60;99.90
35377;DHT22;21480;51.642;4.834;2022-12-07T09:47:45;2.90;99.90
35377;DHT22;21480;51.642;4.834;2022-12-07T09:50:23;3.40;99.90
35377;DHT22;21480;51.642;4.834;2022-12-07T09:52:50;4.00;99.90
35377;DHT22;21480;51.642;4.834;2022-12-07T09:55:28;4.50;99.90
35377;DHT22;21480;51.642;4.834;2022-12-07T09:57:54;4.90;99.90
35377;DHT22;21480;51.642;4.834;2022-12-07T10:00:22;5.10;99.90
35377;DHT22;21480;51.642;4.834;2022-12-07T10:03:00;5.30;99.90
35377;DHT22;21480;51.642;4.834;2022-12-07T10:05:36;5.50;99.90
35377;DHT22;21480;51.642;4.834;2022-12-07T10:08:04;5.80;99.90
35377;DHT22;21480;51.642;4.834;2022-12-07T10:10:32;6.20;99.90
35377;DHT22;21480;51.642;4.834;2022-12-07T10:13:04;6.30;99.90
35377;DHT22;21480;51.642;4.834;2022-12-07T10:15:55;6.20;99.90
35377;DHT22;21480;51.642;4.834;2022-12-07T10:18:41;5.90;99.90
35377;DHT22;21480;51.642;4.834;2022-12-07T10:21:12;5.80;99.90
35377;DHT22;21480;51.642;4.834;2022-12-07T10:23:42;5.70;99.90
35377;DHT22;21480;51.642;4.834;2022-12-07T10:26:36;5.80;99.90
35377;DHT22;21480;51.642;4.834;2022-12-07T10:29:28;6.00;99.90
35377;DHT22;21480;51.642;4.834;2022-12-07T10:34:33;6.80;99.90
35377;DHT22;21480;51.642;4.834;2022-12-07T10:37:17;7.60;99.90
35377;DHT22;21480;51.642;4.834;2022-12-07T10:39:49;7.80;99.90
35377;DHT22;21480;51.642;4.834;2022-12-07T10:42:29;7.70;99.90
35377;DHT22;21480;51.642;4.834;2022-12-07T10:45:15;7.30;99.90
35377;DHT22;21480;51.642;4.834;2022-12-07T10:47:53;7.00;99.90
35377;DHT22;21480;51.642;4.834;2022-12-07T10:50:29;6.90;99.90
35377;DHT22;21480;51.642;4.834;2022-12-07T10:58:48;6.60;99.90
35377;DHT22;21480;51.642;4.834;2022-12-07T11:07:27;6.30;99.90
35377;DHT22;21480;51.642;4.834;2022-12-07T11:24:10;6.00;99.90
35377;DHT22;21480;51.642;4.834;2022-12-07T11:37:46;9.90;99.90
35377;DHT22;21480;51.642;4.834;2022-12-07T11:40:23;10.40;99.90
35377;DHT22;21480;51.642;4.834;2022-12-07T11:42:55;11.10;99.90
35377;DHT22;21480;51.642;4.834;2022-12-07T11:45:27;11.00;99.90
35377;DHT22;21480;51.642;4.834;2022-12-07T11:48:04;10.80;99.90
35377;DHT22;21480;51.642;4.834;2022-12-07T11:50:42;10.00;99.90
35377;DHT22;21480;51.642;4.834;2022-12-07T11:55:49;8.90;99.90
35377;DHT22;21480;51.642;4.834;2022-12-07T12:01:14;8.90;99.90
35377;DHT22;21480;51.642;4.834;2022-12-07T12:06:56;9.40;99.90
35377;DHT22;21480;51.642;4.834;2022-12-07T12:09:24;9.10;99.90
35377;DHT22;21480;51.642;4.834;2022-12-07T12:20:02;7.70;99.90
35377;DHT22;21480;51.642;4.834;2022-12-07T12:22:42;7.50;99.90
35377;DHT22;21480;51.642;4.834;2022-12-07T12:25:25;7.20;99.90
35377;DHT22;21480;51.642;4.834;2022-12-07T12:27:54;7.00;99.90
35377;DHT22;21480;51.642;4.834;2022-12-07T12:30:34;6.80;99.90
35377;DHT22;21480;51.642;4.834;2022-12-07T12:33:06;6.70;99.90
35377;DHT22;21480;51.642;4.834;2022-12-07T12:35:38;6.60;99.90
35377;DHT22;21480;51.642;4.834;2022-12-07T12:38:47;6.50;99.90
35377;DHT22;21480;51.642;4.834;2022-12-07T12:47:38;7.10;99.90
35377;DHT22;21480;51.642;4.834;2022-12-07T12:50:12;7.20;99.90
35377;DHT22;21480;51.642;4.834;2022-12-07T12:57:33;7.90;99.90
35377;DHT22;21480;51.642;4.834;2022-12-07T13:00:01;8.00;99.90
35377;DHT22;21480;51.642;4.834;2022-12-07T13:02:36;7.90;99.90
35377;DHT22;21480;51.642;4.834;2022-12-07T13:15:44;6.80;99.90
35377;DHT22;21480;51.642;4.834;2022-12-07T13:21:00;6.30;99.90
35377;DHT22;21480;51.642;4.834;2022-12-07T13:26:16;5.80;99.90
35377;DHT22;21480;51.642;4.834;2022-12-07T13:29:15;5.70;99.90
35377;DHT22;21480;51.642;4.834;2022-12-07T13:31:54;5.60;99.90
35377;DHT22;21480;51.642;4.834;2022-12-07T13:34:36;5.60;99.90
35377;DHT22;21480;51.642;4.834;2022-12-07T13:37:27;5.60;99.90
35377;DHT22;21480;51.642;4.834;2022-12-07T13:39:56;5.50;99.90
35377;DHT22;21480;51.642;4.834;2022-12-07T13:42:33;5.50;99.90
35377;DHT22;21480;51.642;4.834;2022-12-07T13:45:45;5.50;99.90
35377;DHT22;21480;51.642;4.834;2022-12-07T13:47:53;5.50;99.90
35377;DHT22;21480;51.642;4.834;2022-12-07T13:50:30;5.70;99.90
35377;DHT22;21480;51.642;4.834;2022-12-07T13:53:01;5.80;99.90
35377;DHT22;21480;51.642;4.834;2022-12-07T13:55:28;5.70;99.90
35377;DHT22;21480;51.642;4.834;2022-12-07T13:57:55;5.80;99.90
35377;DHT22;21480;51.642;4.834;2022-12-07T14:00:23;5.80;99.90
35377;DHT22;21480;51.642;4.834;2022-12-07T14:02:59;5.80;99.90
35377;DHT22;21480;51.642;4.834;2022-12-07T14:05:30;5.80;99.90
35377;DHT22;21480;51.642;4.834;2022-12-07T14:10:30;5.50;99.90
35377;DHT22;21480;51.642;4.834;2022-12-07T14:12:57;5.40;99.90
35377;DHT22;21480;51.642;4.834;2022-12-07T14:15:32;5.40;99.90
35377;DHT22;21480;51.642;4.834;2022-12-07T14:18:00;5.30;99.90
35377;DHT22;21480;51.642;4.834;2022-12-07T14:20:34;5.30;99.90
35377;DHT22;21480;51.642;4.834;2022-12-07T14:23:00;5.30;99.90
35377;DHT22;21480;51.642;4.834;2022-12-07T14:25:46;5.30;99.90
35377;DHT22;21480;51.642;4.834;2022-12-07T14:28:44;5.40;99.90
35377;DHT22;21480;51.642;4.834;2022-12-07T14:31:18;5.40;99.90
35377;DHT22;21480;51.642;4.834;2022-12-07T14:33:46;5.50;99.90
35377;DHT22;21480;51.642;4.834;2022-12-07T14:36:15;5.60;99.90
35377;DHT22;21480;51.642;4.834;2022-12-07T14:38:41;5.60;99.90
35377;DHT22;21480;51.642;4.834;2022-12-07T14:41:15;5.60;99.90
35377;DHT22;21480;51.642;4.834;2022-12-07T14:44:04;5.60;99.90
35377;DHT22;21480;51.642;4.834;2022-12-07T14:46:33;5.50;99.90
35377;DHT22;21480;51.642;4.834;2022-12-07T14:48:59;5.50;99.90
35377;DHT22;21480;51.642;4.834;2022-12-07T14:51:25;5.50;99.90
35377;DHT22;21480;51.642;4.834;2022-12-07T14:53:51;5.50;99.90
35377;DHT22;21480;51.642;4.834;2022-12-07T14:56:17;5.40;99.90
35377;DHT22;21480;51.642;4.834;2022-12-07T14:58:43;5.40;99.90
35377;DHT22;21480;51.642;4.834;2022-12-07T15:01:09;5.40;99.90
35377;DHT22;21480;51.642;4.834;2022-12-07T15:03:34;5.30;99.90
35377;DHT22;21480;51.642;4.834;2022-12-07T15:06:04;5.30;99.90
35377;DHT22;21480;51.642;4.834;2022-12-07T15:08:29;5.20;99.90
35377;DHT22;21480;51.642;4.834;2022-12-07T15:10:55;5.20;99.90
35377;DHT22;21480;51.642;4.834;2022-12-07T15:13:21;5.20;99.90
35377;DHT22;21480;51.642;4.834;2022-12-07T15:16:09;5.10;99.90
35377;DHT22;21480;51.642;4.834;2022-12-07T15:18:36;5.00;99.90
35377;DHT22;21480;51.642;4.834;2022-12-07T15:21:01;4.90;99.90
35377;DHT22;21480;51.642;4.834;2022-12-07T15:23:27;4.80;99.90
35377;DHT22;21480;51.642;4.834;2022-12-07T15:25:53;4.80;99.90
35377;DHT22;21480;51.642;4.834;2022-12-07T15:28:19;4.70;99.90
35377;DHT22;21480;51.642;4.834;2022-12-07T15:30:44;4.60;99.90
35377;DHT22;21480;51.642;4.834;2022-12-07T15:33:11;4.50;99.90
35377;DHT22;21480;51.642;4.834;2022-12-07T15:35:44;4.50;99.90
35377;DHT22;21480;51.642;4.834;2022-12-07T15:38:11;4.40;99.90
35377;DHT22;21480;51.642;4.834;2022-12-07T15:40:36;4.40;99.90
35377;DHT22;21480;51.642;4.834;2022-12-07T15:43:03;4.30;99.90
35377;DHT22;21480;51.642;4.834;2022-12-07T15:45:29;4.30;99.90
35377;DHT22;21480;51.642;4.834;2022-12-07T15:47:54;4.30;99.90
35377;DHT22;21480;51.642;4.834;2022-12-07T15:50:21;4.30;99.90
35377;DHT22;21480;51.642;4.834;2022-12-07T15:52:48;4.30;99.90
35377;DHT22;21480;51.642;4.834;2022-12-07T15:55:13;4.30;99.90
35377;DHT22;21480;51.642;4.834;2022-12-07T15:57:39;4.20;99.90
35377;DHT22;21480;51.642;4.834;2022-12-07T16:00:08;4.20;99.90
35377;DHT22;21480;51.642;4.834;2022-12-07T16:02:37;4.20;99.90
35377;DHT22;21480;51.642;4.834;2022-12-07T16:05:03;4.20;99.90
35377;DHT22;21480;51.642;4.834;2022-12-07T16:07:28;4.20;99.90
35377;DHT22;21480;51.642;4.834;2022-12-07T16:09:54;4.20;99.90
35377;DHT22;21480;51.642;4.834;2022-12-07T16:12:20;4.20;99.90
35377;DHT22;21480;51.642;4.834;2022-12-07T16:14:45;4.20;99.90
35377;DHT22;21480;51.642;4.834;2022-12-07T16:17:11;4.10;99.90
35377;DHT22;21480;51.642;4.834;2022-12-07T16:19:37;4.10;99.90
35377;DHT22;21480;51.642;4.834;2022-12-07T16:22:04;4.00;99.90
35377;DHT22;21480;51.642;4.834;2022-12-07T16:24:30;4.00;99.90
35377;DHT22;21480;51.642;4.834;2022-12-07T16:26:56;4.00;99.90
35377;DHT22;21480;51.642;4.834;2022-12-07T16:29:25;3.90;99.90
35377;DHT22;21480;51.642;4.834;2022-12-07T16:31:51;3.90;99.90
35377;DHT22;21480;51.642;4.834;2022-12-07T16:34:17;3.80;99.90
35377;DHT22;21480;51.642;4.834;2022-12-07T16:36:43;3.80;99.90
35377;DHT22;21480;51.642;4.834;2022-12-07T16:39:09;3.80;99.90
35377;DHT22;21480;51.642;4.834;2022-12-07T16:41:35;3.80;99.90
35377;DHT22;21480;51.642;4.834;2022-12-07T16:44:06;3.70;99.90
35377;DHT22;21480;51.642;4.834;2022-12-07T16:46:33;3.70;99.90
35377;DHT22;21480;51.642;4.834;2022-12-07T16:48:59;3.60;99.90
35377;DHT22;21480;51.642;4.834;2022-12-07T16:51:28;3.60;99.90
35377;DHT22;21480;51.642;4.834;2022-12-07T16:53:53;3.50;99.90
35377;DHT22;21480;51.642;4.834;2022-12-07T16:56:19;3.50;99.90
35377;DHT22;21480;51.642;4.834;2022-12-07T16:58:46;3.50;99.90
35377;DHT22;21480;51.642;4.834;2022-12-07T17:01:22;3.60;99.90
35377;DHT22;21480;51.642;4.834;2022-12-07T17:03:48;3.70;99.90
35377;DHT22;21480;51.642;4.834;2022-12-07T17:08:41;3.70;99.90
35377;DHT22;21480;51.642;4.834;2022-12-07T17:11:22;3.80;99.90
35377;DHT22;21480;51.642;4.834;2022-12-07T17:13:49;3.80;99.90
35377;DHT22;21480;51.642;4.834;2022-12-07T17:16:34;3.90;99.90
35377;DHT22;21480;51.642;4.834;2022-12-07T17:19:14;3.90;99.90
35377;DHT22;21480;51.642;4.834;2022-12-07T17:21:40;3.80;99.90
35377;DHT22;21480;51.642;4.834;2022-12-07T17:24:08;3.90;99.90
35377;DHT22;21480;51.642;4.834;2022-12-07T17:26:34;3.80;99.90
35377;DHT22;21480;51.642;4.834;2022-12-07T17:29:01;3.90;99.90
35377;DHT22;21480;51.642;4.834;2022-12-07T17:31:27;3.90;99.90
35377;DHT22;21480;51.642;4.834;2022-12-07T17:33:52;3.90;99.90
35377;DHT22;21480;51.642;4.834;2022-12-07T17:36:21;3.90;99.90
35377;DHT22;21480;51.642;4.834;2022-12-07T17:38:47;3.90;99.90
35377;DHT22;21480;51.642;4.834;2022-12-07T17:41:19;3.90;99.90
35377;DHT22;21480;51.642;4.834;2022-12-07T17:44:06;3.90;99.90
35377;DHT22;21480;51.642;4.834;2022-12-07T17:46:32;3.90;99.90
35377;DHT22;21480;51.642;4.834;2022-12-07T17:48:59;3.90;99.90
35377;DHT22;21480;51.642;4.834;2022-12-07T17:51:25;3.90;99.90
35377;DHT22;21480;51.642;4.834;2022-12-07T17:54:10;3.90;99.90
35377;DHT22;21480;51.642;4.834;2022-12-07T17:56:36;3.90;99.90
35377;DHT22;21480;51.642;4.834;2022-12-07T17:59:03;3.90;99.90
35377;DHT22;21480;51.642;4.834;2022-12-07T18:01:28;3.90;99.90
35377;DHT22;21480;51.642;4.834;2022-12-07T18:03:54;3.90;99.90
35377;DHT22;21480;51.642;4.834;2022-12-07T18:06:20;3.90;99.90
35377;DHT22;21480;51.642;4.834;2022-12-07T18:08:46;3.90;99.90
35377;DHT22;21480;51.642;4.834;2022-12-07T18:11:11;3.90;99.90